Time;durP1;ratioP1;P1;durP2;ratioP2;P2;SDS_P1;SDS_P2;PMS_P1;PMS_P2;Temp;Humidity;BMP_temperature;BMP_pressure;BME280_temperature;BME280_humidity;BME280_pressure;Samples;Min_cycle;Max_cycle;Signal;HPM_P1;HPM_P2
2021/05/18 00:01:08;;;;;;;0.70;0.70;;;;;;;;;;4977535;28;20454;-78
2021/05/18 00:03:34;;;;;;;0.50;0.40;;;;;;;;;;4963577;28;20450;-78
2021/05/18 00:06:04;;;;;;;0.67;0.50;;;;;;;;;;4979970;28;20540;-78
2021/05/18 00:08:33;;;;;;;0.40;0.40;;;;;;;;;;4982417;28;20465;-78
2021/05/18 00:13:47;;;;;;;0.80;0.70;;;;;;;;;;4981672;28;20432;-78
2021/05/18 00:16:13;;;;;;;0.50;0.50;;;;;;;;;;4981476;28;20470;-77
2021/05/18 00:18:40;;;;;;;0.80;0.73;;;;;;;;;;4982474;28;20844;-78
2021/05/18 00:21:07;;;;;;;0.63;0.40;;;;;;;;;;4980524;28;20451;-78
2021/05/18 00:23:33;;;;;;;2.93;0.90;;;;;;;;;;4980814;28;20427;-78
2021/05/18 00:25:59;;;;;;;1.93;0.70;;;;;;;;;;4980025;28;20437;-79
2021/05/18 00:28:25;;;;;;;0.43;0.40;;;;;;;;;;4980652;28;20431;-77
2021/05/18 00:30:51;;;;;;;0.30;0.30;;;;;;;;;;4981654;28;20440;-78
2021/05/18 00:33:18;;;;;;;2.73;0.57;;;;;;;;;;4981125;28;20592;-77
2021/05/18 00:35:45;;;;;;;0.50;0.50;;;;;;;;;;4963479;28;21014;-76
2021/05/18 00:38:12;;;;;;;0.70;0.50;;;;;;;;;;4980595;28;20844;-77
2021/05/18 00:40:38;;;;;;;0.77;0.53;;;;;;;;;;4981387;28;20941;-77
2021/05/18 00:43:04;;;;;;;1.40;0.80;;;;;;;;;;4981754;28;20770;-77
2021/05/18 00:45:31;;;;;;;0.60;0.60;;;;;;;;;;4981362;28;20445;-78
2021/05/18 00:47:58;;;;;;;1.63;0.70;;;;;;;;;;4980877;28;20493;-78
2021/05/18 00:50:24;;;;;;;0.93;0.83;;;;;;;;;;4979084;28;20447;-77
2021/05/18 00:52:50;;;;;;;1.33;0.50;;;;;;;;;;4980790;28;20445;-77
2021/05/18 00:56:02;;;;;;;1.70;0.50;;;;;;;;;;4979824;28;20472;-78
2021/05/18 01:00:52;;;;;;;1.63;0.70;;;;;;;;;;4980054;28;20426;-77
2021/05/18 01:03:17;;;;;;;0.70;0.60;;;;;;;;;;4981436;28;20442;-77
2021/05/18 01:08:28;;;;;;;0.90;0.47;;;;;;;;;;4980075;28;20573;-78
2021/05/18 01:10:54;;;;;;;1.27;0.50;;;;;;;;;;4979801;28;20513;-77
2021/05/18 01:13:20;;;;;;;0.70;0.70;;;;;;;;;;4981734;28;20432;-78
2021/05/18 01:15:46;;;;;;;4.13;0.80;;;;;;;;;;4981650;28;20633;-77
2021/05/18 01:18:12;;;;;;;0.40;0.40;;;;;;;;;;4980220;28;22154;-78
2021/05/18 01:20:58;;;;;;;0.57;0.57;;;;;;;;;;4980717;28;20447;-77
2021/05/18 01:23:25;;;;;;;2.00;0.40;;;;;;;;;;4981342;28;20458;-78
2021/05/18 01:25:51;;;;;;;0.97;0.60;;;;;;;;;;4979923;28;20549;-77
2021/05/18 01:28:17;;;;;;;0.60;0.60;;;;;;;;;;4980232;28;20445;-78
2021/05/18 01:30:43;;;;;;;1.47;0.70;;;;;;;;;;4980930;28;20488;-78
2021/05/18 01:33:09;;;;;;;0.80;0.60;;;;;;;;;;4981724;28;20445;-77
2021/05/18 01:35:35;;;;;;;0.90;0.50;;;;;;;;;;4979515;28;20580;-77
2021/05/18 01:38:04;;;;;;;0.57;0.57;;;;;;;;;;4980649;28;20785;-78
2021/05/18 01:43:12;;;;;;;0.47;0.47;;;;;;;;;;4979068;28;20440;-78
2021/05/18 01:45:40;;;;;;;0.50;0.50;;;;;;;;;;4979288;28;20431;-76
2021/05/18 01:48:09;;;;;;;0.90;0.57;;;;;;;;;;4979308;28;20446;-77
2021/05/18 01:50:36;;;;;;;3.03;0.90;;;;;;;;;;4961691;28;20434;-76
2021/05/18 01:53:03;;;;;;;1.30;0.70;;;;;;;;;;4981021;28;20440;-78
2021/05/18 01:55:40;;;;;;;0.40;0.30;;;;;;;;;;4980562;28;20524;-78
2021/05/18 01:58:06;;;;;;;1.47;0.80;;;;;;;;;;4962570;28;20496;-77
2021/05/18 02:00:34;;;;;;;1.40;1.00;;;;;;;;;;4979641;28;20439;-77
2021/05/18 02:03:00;;;;;;;0.60;0.47;;;;;;;;;;4974482;28;20477;-78
2021/05/18 02:05:29;;;;;;;0.60;0.50;;;;;;;;;;4979802;28;20833;-78
2021/05/18 02:07:56;;;;;;;0.50;0.50;;;;;;;;;;4980076;28;20427;-77
2021/05/18 02:10:22;;;;;;;2.10;0.67;;;;;;;;;;4979380;28;20442;-78
2021/05/18 02:12:48;;;;;;;0.60;0.40;;;;;;;;;;4979110;28;20435;-78
2021/05/18 02:26:26;;;;;;;1.07;0.50;;;;;;;;;;4979679;28;20500;-77
2021/05/18 02:28:52;;;;;;;1.50;0.70;;;;;;;;;;4979506;28;20848;-77
2021/05/18 02:31:19;;;;;;;0.97;0.70;;;;;;;;;;4979545;28;20426;-77
2021/05/18 02:33:49;;;;;;;0.50;0.50;;;;;;;;;;4979739;28;20546;-78
2021/05/18 02:36:15;;;;;;;0.90;0.80;;;;;;;;;;4979711;28;20489;-78
2021/05/18 02:38:42;;;;;;;1.23;1.00;;;;;;;;;;4978614;28;20428;-77
2021/05/18 02:41:08;;;;;;;0.83;0.73;;;;;;;;;;4960725;28;20462;-78
2021/05/18 02:43:43;;;;;;;2.10;0.50;;;;;;;;;;4979002;28;20432;-77
2021/05/18 02:51:19;;;;;;;1.30;0.80;;;;;;;;;;4979998;28;20451;-77
2021/05/18 02:53:45;;;;;;;2.40;1.10;;;;;;;;;;4960765;28;20438;-78
2021/05/18 02:58:39;;;;;;;0.70;0.70;;;;;;;;;;4979237;28;20430;-77
2021/05/18 03:01:05;;;;;;;0.83;0.83;;;;;;;;;;4978578;28;20470;-77
2021/05/18 03:03:31;;;;;;;1.00;0.90;;;;;;;;;;4979009;28;20443;-77
2021/05/18 03:05:57;;;;;;;1.60;0.90;;;;;;;;;;4977441;28;20520;-78
2021/05/18 03:08:23;;;;;;;0.77;0.70;;;;;;;;;;4981453;28;20482;-79
2021/05/18 03:10:49;;;;;;;0.70;0.70;;;;;;;;;;4979214;28;20438;-78
2021/05/18 03:13:15;;;;;;;1.40;0.70;;;;;;;;;;4979101;28;20505;-78
2021/05/18 03:15:41;;;;;;;0.50;0.50;;;;;;;;;;4964583;28;20577;-78
2021/05/18 03:18:07;;;;;;;0.60;0.50;;;;;;;;;;4984188;28;20478;-78
2021/05/18 03:20:33;;;;;;;0.60;0.60;;;;;;;;;;4980735;28;20451;-77
2021/05/18 03:22:59;;;;;;;1.10;0.70;;;;;;;;;;4984891;28;20449;-77
2021/05/18 03:25:25;;;;;;;0.93;0.60;;;;;;;;;;4965931;28;20455;-78
2021/05/18 03:27:56;;;;;;;2.60;2.40;;;;;;;;;;4982219;28;20436;-78
2021/05/18 03:30:44;;;;;;;0.47;0.47;;;;;;;;;;4981908;28;20942;-78
2021/05/18 03:35:55;;;;;;;0.60;0.50;;;;;;;;;;4981282;28;20482;-78
2021/05/18 03:38:32;;;;;;;0.43;0.37;;;;;;;;;;4980756;28;20426;-77
2021/05/18 03:41:07;;;;;;;0.60;0.60;;;;;;;;;;4981887;28;20868;-77
2021/05/18 03:43:45;;;;;;;0.87;0.40;;;;;;;;;;4966651;28;20435;-77
2021/05/18 04:04:57;;;;;;;0.70;0.50;;;;;;;;;;4980841;28;20477;-78
2021/05/18 04:12:52;;;;;;;0.60;0.30;;;;;;;;;;4983393;28;20447;-78
2021/05/18 04:18:15;;;;;;;0.60;0.50;;;;;;;;;;4962075;28;20433;-79
2021/05/18 04:20:49;;;;;;;1.33;0.40;;;;;;;;;;4963298;28;20473;-78
2021/05/18 05:00:45;;;;;;;0.50;0.50;;;;;;;;;;4981256;28;20866;-77
2021/05/18 05:08:54;;;;;;;0.60;0.60;;;;;;;;;;4978036;28;20953;-78
2021/05/18 05:16:31;;;;;;;0.80;0.60;;;;;;;;;;4981474;28;20485;-77
2021/05/18 05:18:57;;;;;;;0.80;0.80;;;;;;;;;;4980985;28;20432;-78
2021/05/18 05:21:29;;;;;;;1.40;0.60;;;;;;;;;;4980203;28;20454;-78
2021/05/18 05:23:55;;;;;;;0.93;0.93;;;;;;;;;;4981584;28;20439;-78
2021/05/18 05:26:21;;;;;;;1.70;0.53;;;;;;;;;;4980312;28;20944;-78
2021/05/18 05:28:47;;;;;;;0.43;0.43;;;;;;;;;;4984793;28;20481;-77
2021/05/18 05:31:13;;;;;;;0.60;0.60;;;;;;;;;;4981190;28;20837;-78
2021/05/18 05:33:39;;;;;;;0.50;0.50;;;;;;;;;;4979187;28;20517;-78
2021/05/18 05:36:06;;;;;;;12.13;1.37;;;;;;;;;;4972017;28;20494;-78
2021/05/18 05:38:35;;;;;;;1.17;1.10;;;;;;;;;;4972298;28;20443;-76
2021/05/18 05:41:01;;;;;;;0.80;0.80;;;;;;;;;;4980330;28;20443;-77
2021/05/18 05:43:28;;;;;;;1.17;0.87;;;;;;;;;;4974478;28;20760;-77
2021/05/18 05:45:55;;;;;;;1.27;0.80;;;;;;;;;;4974904;28;20446;-77
2021/05/18 05:48:22;;;;;;;1.83;1.10;;;;;;;;;;4974469;28;20439;-77
2021/05/18 05:50:48;;;;;;;0.80;0.70;;;;;;;;;;4975354;28;20462;-77
2021/05/18 05:53:15;;;;;;;1.17;1.00;;;;;;;;;;4978586;28;20565;-77
2021/05/18 05:55:42;;;;;;;0.73;0.73;;;;;;;;;;4973632;28;20534;-78
2021/05/18 05:58:13;;;;;;;3.03;0.90;;;;;;;;;;4957841;28;20504;-77
2021/05/18 06:00:39;;;;;;;0.60;0.60;;;;;;;;;;4973902;28;20434;-78
2021/05/18 06:03:06;;;;;;;0.87;0.87;;;;;;;;;;4954680;28;20843;-78
2021/05/18 06:05:33;;;;;;;1.80;1.70;;;;;;;;;;4967535;28;20836;-77
2021/05/18 06:07:59;;;;;;;1.10;1.00;;;;;;;;;;4973979;28;20463;-77
2021/05/18 06:47:38;;;;;;;0.67;0.67;;;;;;;;;;4962341;28;20440;-78
2021/05/18 06:52:41;;;;;;;0.77;0.60;;;;;;;;;;4981587;28;20449;-77
2021/05/18 06:55:16;;;;;;;0.70;0.70;;;;;;;;;;4975425;28;20516;-76
2021/05/18 06:57:53;;;;;;;1.00;0.90;;;;;;;;;;4980721;28;20803;-73
2021/05/18 07:00:20;;;;;;;0.80;0.60;;;;;;;;;;4961161;28;20447;-77
2021/05/18 07:02:46;;;;;;;3.40;0.80;;;;;;;;;;4975592;28;20439;-73
2021/05/18 07:07:40;;;;;;;3.73;0.80;;;;;;;;;;4963424;28;20941;-78
2021/05/18 07:10:06;;;;;;;0.60;0.50;;;;;;;;;;4965616;28;20444;-78
2021/05/18 07:12:32;;;;;;;0.60;0.60;;;;;;;;;;4964287;28;20448;-78
2021/05/18 07:15:00;;;;;;;0.93;0.70;;;;;;;;;;4949139;28;20440;-76
2021/05/18 07:17:26;;;;;;;1.33;0.70;;;;;;;;;;4964146;28;20517;-76
2021/05/18 07:19:52;;;;;;;0.80;0.67;;;;;;;;;;4963041;28;20468;-78
2021/05/18 07:22:18;;;;;;;1.47;1.10;;;;;;;;;;4964393;28;22249;-76
2021/05/18 07:24:44;;;;;;;0.60;0.60;;;;;;;;;;4963375;28;20793;-76
2021/05/18 07:27:10;;;;;;;1.40;0.83;;;;;;;;;;4948382;28;20462;-77
2021/05/18 07:29:36;;;;;;;0.47;0.47;;;;;;;;;;4965370;28;20473;-78
2021/05/18 07:32:02;;;;;;;1.43;0.57;;;;;;;;;;4964721;28;20466;-76
2021/05/18 07:34:29;;;;;;;0.77;0.50;;;;;;;;;;4966360;28;20867;-76
2021/05/18 07:36:55;;;;;;;0.83;0.60;;;;;;;;;;4967355;28;20547;-78
2021/05/18 07:39:21;;;;;;;0.80;0.60;;;;;;;;;;4966849;28;20438;-77
2021/05/18 07:41:47;;;;;;;1.97;0.90;;;;;;;;;;4966634;28;20541;-78
2021/05/18 07:44:13;;;;;;;0.73;0.73;;;;;;;;;;4960105;28;20586;-77
2021/05/18 07:46:41;;;;;;;0.60;0.60;;;;;;;;;;4969292;28;20620;-74
2021/05/18 07:49:14;;;;;;;0.70;0.70;;;;;;;;;;4965127;28;20441;-77
2021/05/18 08:00:23;;;;;;;2.10;0.70;;;;;;;;;;4980295;28;20843;-76
2021/05/18 08:05:34;;;;;;;0.60;0.50;;;;;;;;;;4976626;28;20583;-78
2021/05/18 08:08:00;;;;;;;0.93;0.93;;;;;;;;;;4919053;29;20521;-77
2021/05/18 08:12:56;;;;;;;3.83;0.80;;;;;;;;;;4921106;29;20542;-77
2021/05/18 09:47:45;;;;;;;2.37;1.20;;;;;;;;;;4953074;29;20929;-72
2021/05/18 10:34:23;;;;;;;2.83;1.07;;;;;;;;;;4954487;29;20428;-73
2021/05/18 10:36:50;;;;;;;1.67;0.80;;;;;;;;;;4954255;29;20478;-73
2021/05/18 10:42:19;;;;;;;1.43;0.87;;;;;;;;;;4954564;29;20519;-76
2021/05/18 10:44:58;;;;;;;1.00;0.50;;;;;;;;;;4954358;29;20423;-73
2021/05/18 10:47:53;;;;;;;2.10;0.53;;;;;;;;;;4954162;29;20997;-72
2021/05/18 10:50:19;;;;;;;1.47;0.60;;;;;;;;;;4941766;29;20462;-72
2021/05/18 10:52:45;;;;;;;1.17;0.67;;;;;;;;;;4953995;29;20901;-74
2021/05/18 10:55:11;;;;;;;0.70;0.50;;;;;;;;;;4954172;29;20469;-73
2021/05/18 10:57:37;;;;;;;0.93;0.60;;;;;;;;;;4954691;29;20428;-73
2021/05/18 11:00:07;;;;;;;2.07;0.87;;;;;;;;;;4954391;29;20423;-72
2021/05/18 11:02:40;;;;;;;1.37;0.77;;;;;;;;;;4954533;29;20428;-72
2021/05/18 11:05:11;;;;;;;1.07;0.70;;;;;;;;;;4954390;29;20469;-74
2021/05/18 11:07:44;;;;;;;0.57;0.57;;;;;;;;;;4955018;29;20467;-72
2021/05/18 11:13:13;;;;;;;3.13;2.93;;;;;;;;;;4955036;29;20431;-80
2021/05/18 11:15:39;;;;;;;1.10;0.80;;;;;;;;;;4944608;29;20837;-81
2021/05/18 11:18:08;;;;;;;0.70;0.40;;;;;;;;;;4963092;29;20439;-80
2021/05/18 11:26:06;;;;;;;3.10;0.73;;;;;;;;;;4921776;29;20530;-84
2021/05/18 11:28:40;;;;;;;1.50;0.40;;;;;;;;;;4967356;29;20447;-85
2021/05/18 11:31:13;;;;;;;1.00;0.53;;;;;;;;;;4967745;29;20443;-86
2021/05/18 11:33:46;;;;;;;1.90;0.77;;;;;;;;;;4961484;29;20419;-83
2021/05/18 11:36:14;;;;;;;2.30;0.90;;;;;;;;;;4956883;28;20533;-82
2021/05/18 11:38:41;;;;;;;1.40;0.63;;;;;;;;;;4960754;29;20426;-82
2021/05/18 11:41:08;;;;;;;1.63;0.90;;;;;;;;;;4961843;29;20447;-81
2021/05/18 11:43:37;;;;;;;1.83;0.70;;;;;;;;;;4962096;29;20470;-83
2021/05/18 11:46:08;;;;;;;0.40;0.40;;;;;;;;;;4959290;29;20604;-80
2021/05/18 11:48:34;;;;;;;1.00;0.60;;;;;;;;;;4960851;29;20570;-82
2021/05/18 11:51:20;;;;;;;4.97;0.60;;;;;;;;;;4962097;29;20435;-88
2021/05/18 11:53:48;;;;;;;0.67;0.40;;;;;;;;;;4966744;29;20482;-85
2021/05/18 11:56:34;;;;;;;0.40;0.30;;;;;;;;;;4964456;29;20470;-81
2021/05/18 11:59:11;;;;;;;1.50;0.40;;;;;;;;;;4961833;29;20454;-83
2021/05/18 12:01:44;;;;;;;1.67;0.50;;;;;;;;;;4958398;29;20437;-82
2021/05/18 12:04:10;;;;;;;1.80;0.50;;;;;;;;;;4954904;28;20416;-81
2021/05/18 12:06:39;;;;;;;0.80;0.50;;;;;;;;;;4955126;29;20434;-83
2021/05/18 12:09:06;;;;;;;1.30;0.70;;;;;;;;;;4939077;29;20926;-83
2021/05/18 12:11:32;;;;;;;1.90;1.10;;;;;;;;;;4939024;29;20482;-80
2021/05/18 12:13:58;;;;;;;1.97;0.70;;;;;;;;;;4956097;29;20447;-84
2021/05/18 12:16:25;;;;;;;0.83;0.67;;;;;;;;;;4956445;29;20517;-82
2021/05/18 12:18:55;;;;;;;3.43;0.53;;;;;;;;;;4955836;29;20486;-82
2021/05/18 12:21:29;;;;;;;0.87;0.53;;;;;;;;;;4955734;29;20431;-80
2021/05/18 12:24:06;;;;;;;3.83;0.60;;;;;;;;;;4955507;29;20418;-77
2021/05/18 12:26:33;;;;;;;12.03;1.07;;;;;;;;;;4955367;29;20471;-77
2021/05/18 12:29:03;;;;;;;2.30;0.73;;;;;;;;;;4955451;29;20411;-80
2021/05/18 12:31:38;;;;;;;1.10;0.63;;;;;;;;;;4955261;29;20424;-80
2021/05/18 12:34:06;;;;;;;2.00;0.57;;;;;;;;;;4954520;29;20725;-76
2021/05/18 12:36:45;;;;;;;1.27;0.70;;;;;;;;;;4954903;29;20482;-75
2021/05/18 12:39:12;;;;;;;0.40;0.37;;;;;;;;;;4954790;29;20422;-78
2021/05/18 12:41:49;;;;;;;1.87;0.70;;;;;;;;;;4954637;29;20420;-80
2021/05/18 12:44:15;;;;;;;2.20;0.63;;;;;;;;;;4955111;29;20420;-85
2021/05/18 12:46:53;;;;;;;0.77;0.50;;;;;;;;;;4954615;28;20422;-80
2021/05/18 12:49:23;;;;;;;0.90;0.50;;;;;;;;;;4954543;29;20515;-80
2021/05/18 12:52:06;;;;;;;1.70;0.53;;;;;;;;;;4937909;29;20495;-82
2021/05/18 12:54:50;;;;;;;1.13;0.57;;;;;;;;;;4954405;29;20416;-85
2021/05/18 12:57:18;;;;;;;1.13;0.60;;;;;;;;;;4954304;29;20483;-83
2021/05/18 12:59:56;;;;;;;0.80;0.40;;;;;;;;;;4954528;29;20847;-79
2021/05/18 13:02:28;;;;;;;2.30;0.67;;;;;;;;;;4955611;29;20419;-78
2021/05/18 13:05:07;;;;;;;0.90;0.30;;;;;;;;;;4939566;29;20478;-83
2021/05/18 13:07:34;;;;;;;0.70;0.50;;;;;;;;;;4954490;29;20419;-84
2021/05/18 13:10:13;;;;;;;1.27;0.50;;;;;;;;;;4954450;29;20442;-80
2021/05/18 13:12:39;;;;;;;0.97;0.60;;;;;;;;;;4955402;29;20423;-85
2021/05/18 13:15:07;;;;;;;1.63;0.50;;;;;;;;;;4955684;29;20427;-87
2021/05/18 13:17:33;;;;;;;1.37;0.70;;;;;;;;;;4955150;29;20432;-79
2021/05/18 13:20:00;;;;;;;1.47;0.50;;;;;;;;;;4955116;29;20416;-78
2021/05/18 13:22:29;;;;;;;2.53;0.80;;;;;;;;;;4955371;29;20503;-81
2021/05/18 13:27:59;;;;;;;1.50;0.60;;;;;;;;;;4955490;29;20508;-81
2021/05/18 13:30:29;;;;;;;2.23;0.63;;;;;;;;;;4955137;29;20918;-76
2021/05/18 13:32:55;;;;;;;0.90;0.70;;;;;;;;;;4951379;29;20548;-73
2021/05/18 13:35:22;;;;;;;2.33;0.97;;;;;;;;;;4952608;29;20613;-70
2021/05/18 13:37:48;;;;;;;3.50;1.00;;;;;;;;;;4935880;29;20423;-71
2021/05/18 13:40:17;;;;;;;4.23;1.17;;;;;;;;;;4952890;29;20435;-74
2021/05/18 13:42:50;;;;;;;2.50;0.70;;;;;;;;;;4935944;29;20522;-75
2021/05/18 13:45:17;;;;;;;1.03;0.63;;;;;;;;;;4953106;29;20443;-74
2021/05/18 13:47:49;;;;;;;1.70;0.80;;;;;;;;;;4952754;29;20412;-74
2021/05/18 13:50:26;;;;;;;1.63;0.73;;;;;;;;;;4935578;29;20435;-74
2021/05/18 13:52:52;;;;;;;1.70;0.60;;;;;;;;;;4936091;29;20423;-72
2021/05/18 13:55:22;;;;;;;0.80;0.40;;;;;;;;;;4952780;29;20538;-75
2021/05/18 13:57:48;;;;;;;0.70;0.50;;;;;;;;;;4952785;29;20480;-71
2021/05/18 14:00:16;;;;;;;1.90;1.17;;;;;;;;;;4952137;28;20547;-72
2021/05/18 14:02:43;;;;;;;1.90;0.50;;;;;;;;;;4952527;29;20434;-72
2021/05/18 14:05:10;;;;;;;1.37;0.47;;;;;;;;;;4952464;29;20479;-71
2021/05/18 14:07:56;;;;;;;6.33;0.60;;;;;;;;;;4952688;29;20459;-72
2021/05/18 14:10:22;;;;;;;0.53;0.40;;;;;;;;;;4952483;29;20496;-69
2021/05/18 14:12:48;;;;;;;0.70;0.50;;;;;;;;;;4952370;29;20544;-71
2021/05/18 14:15:14;;;;;;;0.40;0.30;;;;;;;;;;4952221;29;20455;-73
2021/05/18 14:17:40;;;;;;;1.50;1.03;;;;;;;;;;4952242;29;20833;-71
2021/05/18 14:20:09;;;;;;;1.10;0.33;;;;;;;;;;4952010;29;20507;-72
2021/05/18 14:22:36;;;;;;;0.87;0.50;;;;;;;;;;4935030;29;20439;-72
2021/05/18 14:25:05;;;;;;;0.80;0.50;;;;;;;;;;4952005;29;20423;-72
2021/05/18 14:27:36;;;;;;;1.27;0.40;;;;;;;;;;4953436;29;20432;-71
2021/05/18 14:30:02;;;;;;;0.73;0.60;;;;;;;;;;4953197;29;20828;-71
2021/05/18 14:32:28;;;;;;;1.10;0.43;;;;;;;;;;4953253;29;20906;-72
2021/05/18 14:34:54;;;;;;;0.57;0.50;;;;;;;;;;4953354;29;20845;-72
2021/05/18 14:37:20;;;;;;;1.90;0.47;;;;;;;;;;4953187;29;20798;-72
2021/05/18 14:45:18;;;;;;;1.43;0.60;;;;;;;;;;4953930;29;20419;-73
2021/05/18 14:55:45;;;;;;;0.50;0.40;;;;;;;;;;4953048;29;20568;-80
2021/05/18 14:58:14;;;;;;;0.37;0.37;;;;;;;;;;4953808;29;20423;-71
2021/05/18 15:00:40;;;;;;;0.40;0.40;;;;;;;;;;4951761;29;20478;-71
2021/05/18 15:03:06;;;;;;;0.60;0.50;;;;;;;;;;4951432;29;20473;-73
2021/05/18 15:05:32;;;;;;;0.40;0.30;;;;;;;;;;4951577;28;20475;-72
2021/05/18 15:07:59;;;;;;;1.10;0.60;;;;;;;;;;4951825;29;20462;-73
2021/05/18 15:10:28;;;;;;;0.63;0.50;;;;;;;;;;4934107;29;20562;-71
2021/05/18 15:12:54;;;;;;;0.50;0.40;;;;;;;;;;4938357;29;20447;-71
2021/05/18 15:15:21;;;;;;;1.47;0.73;;;;;;;;;;4956016;29;20458;-73
2021/05/18 15:17:47;;;;;;;1.67;0.50;;;;;;;;;;4956277;29;20432;-73
2021/05/18 15:20:14;;;;;;;2.30;0.50;;;;;;;;;;4956459;29;20419;-71
2021/05/18 15:22:43;;;;;;;0.97;0.30;;;;;;;;;;4956481;29;20782;-70
2021/05/18 15:25:14;;;;;;;0.87;0.40;;;;;;;;;;4957327;29;20407;-71
2021/05/18 15:27:41;;;;;;;2.93;0.60;;;;;;;;;;4939989;29;20443;-69
2021/05/18 15:30:07;;;;;;;1.70;0.50;;;;;;;;;;4957016;29;20447;-70
2021/05/18 15:32:34;;;;;;;0.80;0.60;;;;;;;;;;4956959;29;20512;-71
2021/05/18 15:35:00;;;;;;;1.47;0.47;;;;;;;;;;4956937;29;20427;-70
2021/05/18 15:37:26;;;;;;;2.10;0.97;;;;;;;;;;4956267;29;20427;-73
2021/05/18 15:39:52;;;;;;;0.60;0.50;;;;;;;;;;4956363;29;20450;-73
2021/05/18 15:45:21;;;;;;;4.33;0.60;;;;;;;;;;4955903;29;20418;-71
2021/05/18 15:47:47;;;;;;;0.70;0.50;;;;;;;;;;4955928;29;20913;-72
2021/05/18 15:50:14;;;;;;;1.27;0.50;;;;;;;;;;4955939;29;20423;-70
2021/05/18 15:52:40;;;;;;;1.00;0.60;;;;;;;;;;4956488;29;20419;-70
2021/05/18 15:55:07;;;;;;;0.57;0.40;;;;;;;;;;4956044;29;20518;-71
2021/05/18 16:00:36;;;;;;;1.63;0.73;;;;;;;;;;4956105;29;20421;-70
2021/05/18 16:03:02;;;;;;;0.90;0.60;;;;;;;;;;4956245;29;20446;-70
2021/05/18 16:05:28;;;;;;;1.37;0.70;;;;;;;;;;4956178;29;20837;-70
2021/05/18 16:08:05;;;;;;;1.00;0.70;;;;;;;;;;4956104;29;20419;-71
2021/05/18 16:10:31;;;;;;;0.90;0.80;;;;;;;;;;4956169;29;20499;-70
2021/05/18 16:12:57;;;;;;;5.37;0.90;;;;;;;;;;4939034;29;20431;-73
2021/05/18 16:15:23;;;;;;;1.80;0.70;;;;;;;;;;4955958;29;20470;-73
2021/05/18 16:17:49;;;;;;;3.43;1.33;;;;;;;;;;4955991;29;20465;-74
2021/05/18 16:20:15;;;;;;;0.87;0.50;;;;;;;;;;4956106;29;20416;-72
2021/05/18 16:22:41;;;;;;;0.90;0.53;;;;;;;;;;4955201;28;20424;-72
2021/05/18 16:25:08;;;;;;;0.70;0.50;;;;;;;;;;4956001;29;20418;-73
2021/05/18 16:30:38;;;;;;;1.63;0.77;;;;;;;;;;4955673;29;20980;-74
2021/05/18 16:33:04;;;;;;;3.37;0.70;;;;;;;;;;4955939;29;20419;-72
2021/05/18 16:35:30;;;;;;;2.33;0.57;;;;;;;;;;4955600;29;20470;-75
2021/05/18 16:37:56;;;;;;;2.00;0.63;;;;;;;;;;4955749;29;20412;-73
2021/05/18 16:40:22;;;;;;;1.70;0.70;;;;;;;;;;4955541;29;20931;-73
2021/05/18 16:45:52;;;;;;;1.53;0.90;;;;;;;;;;4955404;29;20414;-73
2021/05/18 16:48:18;;;;;;;4.23;1.07;;;;;;;;;;4955353;29;20412;-72
2021/05/18 16:50:46;;;;;;;0.57;0.57;;;;;;;;;;4955175;29;20408;-71
2021/05/18 16:53:12;;;;;;;0.87;0.50;;;;;;;;;;4955230;29;20426;-72
2021/05/18 16:55:38;;;;;;;0.50;0.50;;;;;;;;;;4955132;29;20893;-71
2021/05/18 17:01:07;;;;;;;1.10;0.60;;;;;;;;;;4954850;29;20415;-72
2021/05/18 17:03:33;;;;;;;1.20;0.50;;;;;;;;;;4954746;29;20427;-73
2021/05/18 17:06:00;;;;;;;0.63;0.40;;;;;;;;;;4954822;28;20526;-71
2021/05/18 17:08:26;;;;;;;0.83;0.50;;;;;;;;;;4955194;29;20414;-72
2021/05/18 17:10:52;;;;;;;0.83;0.70;;;;;;;;;;4955356;29;20430;-73
2021/05/18 17:13:18;;;;;;;1.60;0.80;;;;;;;;;;4955288;29;20498;-73
2021/05/18 17:15:44;;;;;;;0.50;0.40;;;;;;;;;;4954769;29;20499;-72
2021/05/18 17:18:10;;;;;;;1.67;0.70;;;;;;;;;;4954882;29;20895;-71
2021/05/18 17:20:36;;;;;;;1.30;0.60;;;;;;;;;;4954591;29;20443;-72
2021/05/18 17:23:03;;;;;;;0.77;0.40;;;;;;;;;;4937919;29;20470;-71
2021/05/18 17:25:29;;;;;;;0.90;0.50;;;;;;;;;;4954776;29;20415;-71
2021/05/18 17:30:58;;;;;;;0.90;0.40;;;;;;;;;;4954647;29;20418;-71
2021/05/18 17:33:25;;;;;;;1.20;0.40;;;;;;;;;;4954216;28;20913;-73
2021/05/18 17:35:51;;;;;;;0.87;0.40;;;;;;;;;;4954546;29;20474;-73
2021/05/18 17:38:17;;;;;;;0.53;0.50;;;;;;;;;;4954502;29;20767;-71
2021/05/18 17:40:44;;;;;;;0.87;0.47;;;;;;;;;;4955758;29;20526;-72
2021/05/18 17:46:14;;;;;;;0.50;0.50;;;;;;;;;;4955397;29;20421;-73
2021/05/18 17:48:40;;;;;;;0.60;0.50;;;;;;;;;;4938157;29;20432;-73
2021/05/18 17:51:06;;;;;;;1.10;1.03;;;;;;;;;;4954180;29;20824;-76
2021/05/18 17:53:32;;;;;;;0.60;0.40;;;;;;;;;;4955242;29;20411;-73
2021/05/18 17:55:58;;;;;;;0.80;0.40;;;;;;;;;;4954920;29;20467;-70
2021/05/18 18:01:27;;;;;;;0.60;0.50;;;;;;;;;;4955170;29;20411;-72
2021/05/18 18:03:53;;;;;;;1.00;0.73;;;;;;;;;;4955016;29;20411;-73
2021/05/18 18:06:19;;;;;;;1.27;0.50;;;;;;;;;;4954926;29;20439;-73
2021/05/18 18:08:47;;;;;;;0.77;0.60;;;;;;;;;;4955075;29;20746;-73
2021/05/18 18:11:14;;;;;;;0.50;0.40;;;;;;;;;;4955107;29;20477;-70
2021/05/18 18:16:43;;;;;;;1.07;0.60;;;;;;;;;;4954577;29;20529;-71
2021/05/18 18:19:10;;;;;;;0.63;0.40;;;;;;;;;;4954832;29;20894;-73
2021/05/18 18:21:36;;;;;;;0.70;0.30;;;;;;;;;;4954676;29;20433;-74
2021/05/18 18:24:03;;;;;;;0.53;0.40;;;;;;;;;;4954391;29;20471;-73
2021/05/18 18:26:29;;;;;;;0.50;0.40;;;;;;;;;;4954364;29;20764;-72
2021/05/18 18:28:55;;;;;;;0.40;0.40;;;;;;;;;;4953386;29;20833;-71
2021/05/18 18:31:21;;;;;;;0.70;0.50;;;;;;;;;;4953600;29;20465;-72
2021/05/18 18:33:47;;;;;;;0.50;0.40;;;;;;;;;;4953677;29;20450;-72
2021/05/18 18:36:13;;;;;;;1.40;0.50;;;;;;;;;;4936413;29;20466;-71
2021/05/18 18:38:39;;;;;;;2.63;0.70;;;;;;;;;;4953579;29;20429;-71
2021/05/18 18:41:06;;;;;;;2.17;0.73;;;;;;;;;;4952311;29;20931;-72
2021/05/18 18:46:37;;;;;;;2.90;0.37;;;;;;;;;;4953213;28;20442;-74
2021/05/18 18:49:03;;;;;;;1.17;0.40;;;;;;;;;;4953710;29;20960;-74
2021/05/18 18:51:32;;;;;;;1.70;0.50;;;;;;;;;;4952142;29;20999;-73
2021/05/18 18:53:58;;;;;;;1.33;0.87;;;;;;;;;;4953256;29;20426;-72
2021/05/18 18:56:24;;;;;;;0.73;0.43;;;;;;;;;;4953707;29;20477;-72
2021/05/18 19:01:57;;;;;;;0.70;0.70;;;;;;;;;;4953396;29;20415;-72
2021/05/18 19:04:26;;;;;;;1.40;0.63;;;;;;;;;;4953294;29;20471;-72
2021/05/18 19:07:06;;;;;;;3.80;0.90;;;;;;;;;;4936120;29;20905;-71
2021/05/18 19:14:40;;;;;;;2.23;1.80;;;;;;;;;;4954459;29;20909;-73
2021/05/18 19:17:06;;;;;;;2.90;2.20;;;;;;;;;;4954198;29;20466;-73
2021/05/18 19:19:32;;;;;;;1.60;1.50;;;;;;;;;;4954307;29;20557;-72
2021/05/18 19:21:58;;;;;;;1.20;1.10;;;;;;;;;;4954198;29;20459;-73
2021/05/18 19:24:24;;;;;;;0.70;0.70;;;;;;;;;;4954056;29;21060;-73
2021/05/18 19:26:50;;;;;;;4.03;0.97;;;;;;;;;;4954271;29;20429;-72
2021/05/18 19:32:20;;;;;;;0.57;0.57;;;;;;;;;;4953860;29;20421;-73
2021/05/18 19:34:47;;;;;;;1.30;1.00;;;;;;;;;;4953950;29;20416;-73
2021/05/18 19:37:38;;;;;;;1.20;0.93;;;;;;;;;;4953973;29;20857;-72
2021/05/18 19:48:07;;;;;;;0.70;0.70;;;;;;;;;;4960023;28;20512;-73
2021/05/18 19:50:33;;;;;;;0.80;0.80;;;;;;;;;;4953889;29;20424;-73
2021/05/18 19:53:10;;;;;;;0.63;0.63;;;;;;;;;;4954132;29;20491;-73
2021/05/18 19:55:42;;;;;;;1.10;0.93;;;;;;;;;;4954046;29;20468;-74
2021/05/18 19:58:16;;;;;;;1.90;1.00;;;;;;;;;;4955678;28;20427;-73
2021/05/18 20:17:14;;;;;;;1.33;0.83;;;;;;;;;;4956350;29;20584;-72
2021/05/18 20:19:45;;;;;;;1.03;0.87;;;;;;;;;;4956326;29;20430;-73
2021/05/18 20:22:15;;;;;;;1.10;0.90;;;;;;;;;;4956652;29;20421;-73
2021/05/18 20:24:42;;;;;;;3.43;1.60;;;;;;;;;;4956386;29;20506;-73
2021/05/18 20:27:08;;;;;;;2.20;1.10;;;;;;;;;;4939269;29;20458;-73
2021/05/18 20:29:35;;;;;;;0.87;0.87;;;;;;;;;;4939260;29;20430;-73
2021/05/18 20:32:07;;;;;;;1.43;1.33;;;;;;;;;;4939465;29;20421;-72
2021/05/18 20:39:59;;;;;;;4.40;1.30;;;;;;;;;;4955906;29;20491;-73
2021/05/18 20:42:25;;;;;;;1.40;1.30;;;;;;;;;;4938065;29;20425;-73
2021/05/18 20:44:52;;;;;;;2.63;1.10;;;;;;;;;;4939192;29;20434;-73
2021/05/18 20:47:21;;;;;;;1.87;1.00;;;;;;;;;;4938806;29;20434;-73
2021/05/18 20:49:47;;;;;;;2.40;1.00;;;;;;;;;;4955818;29;20412;-74
2021/05/18 20:52:13;;;;;;;2.80;1.50;;;;;;;;;;4955940;29;20448;-71
2021/05/18 20:54:39;;;;;;;2.60;1.20;;;;;;;;;;4955964;29;20456;-74
2021/05/18 20:57:06;;;;;;;3.27;1.60;;;;;;;;;;4955763;29;20477;-75
2021/05/18 20:59:32;;;;;;;2.47;0.90;;;;;;;;;;4955799;29;20424;-73
2021/05/18 21:01:58;;;;;;;1.20;1.10;;;;;;;;;;4954785;29;20506;-73
2021/05/18 21:04:24;;;;;;;1.80;1.03;;;;;;;;;;4954385;29;20495;-74
2021/05/18 21:09:52;;;;;;;2.27;1.50;;;;;;;;;;4914971;29;20435;-73
2021/05/18 21:17:31;;;;;;;3.97;1.23;;;;;;;;;;4954361;29;20516;-72
2021/05/18 21:19:58;;;;;;;1.30;1.20;;;;;;;;;;4937209;29;20432;-73
2021/05/18 21:22:24;;;;;;;2.50;1.37;;;;;;;;;;4954442;29;20452;-74
2021/05/18 21:24:50;;;;;;;2.43;1.40;;;;;;;;;;4936909;29;20468;-73
2021/05/18 21:27:15;;;;;;;1.80;1.20;;;;;;;;;;4954308;29;20464;-73
2021/05/18 21:29:42;;;;;;;1.87;1.40;;;;;;;;;;4954040;29;20891;-74
2021/05/18 21:32:08;;;;;;;1.30;1.20;;;;;;;;;;4954129;29;20430;-74
2021/05/18 21:34:34;;;;;;;1.80;1.60;;;;;;;;;;4954794;29;20425;-73
2021/05/18 21:37:00;;;;;;;2.70;1.50;;;;;;;;;;4936754;29;20577;-73